プンタアレナス の空港の天気 - METARとTAF

プンタアレナス空港 ( SCCI / PUQ ) - チリ プンタアレナス
飛行場実況気象(Metar)
観測時間01/23 02:00 CLST (01/23 05:00 UTC)
風向・風速西 4m/s
視程10km以上
天気現象
全天の4割程度の雲 雲底高度 910m
全天の8割程度の雲 雲底高度 2440m
気温5℃
湿度81%
気圧1002hPa
METARSCCI 230500Z 28008KT 9999 SCT030 BKN080 05/02 Q1002 NOSIG
過去の天気等 Google飛行場航空写真 Wunderground天気予報

過去48時間のMETAR

飛行場予報(TAF)
発表時間: 1/23 02:47 CLST (1/23 05:47 UTC)
予報対象時間: 23日3時 CLST ~ 24日3時 CLST
風向・風速西 6m/s
視程10km以上
少しの雲 雲底高度 610m
全天の4割程度の雲 雲底高度 1,070m
23日5時 CLST ~ 23日7時 CLST に徐々に
風向・風速西 9m/s
23日10時 CLST ~ 23日12時 CLST に徐々に
風向・風速西 11m/s 瞬間風速 17m/s
全天の8割程度の雲 雲底高度 1,070m
23日11時 CLST ~ 23日17時 CLST に一時的に
視程9,000m
天気現象弱いしゅう雨
全天の4割程度の雲 雲底高度 610m
全天の8割程度の雲 雲底高度 910m
23日20時 CLST ~ 23日22時 CLST に徐々に
風向・風速西 8m/s 瞬間風速 13m/s
24日1時 CLST ~ 24日3時 CLST に一時的に
風向・風速西 13m/s 瞬間風速 18m/s
TAF COR SCCI 230547Z 2306/2406 27012KT 9999 FEW020 SCT035 TN06/2310Z TX13/2319Z
BECMG 2308/2310 27018KT
BECMG 2313/2315 27022G33KT BKN035
TEMPO 2314/2320 9000 -SHRA SCT020 BKN030
BECMG 2323/2401 28015G25KT
TEMPO 2404/2406 28025G35KT